Meteo Giornale » Osservazioni meteo Stati Uniti (USA) » Yakima Air Terminal
ore: 23:53 - Osservazioni Meteo Yakima Air Terminal
Lat. 46° 33' N Lon. 120° 32' W Alt. 333 metri s.l.m.
15 °C
Sereno
Temp. 24 Ore
0 °C
28 °C
Ovest/Sud-Ovest
9.3 Km/h
Dew point 8 °C
Umidità 62 %
Visibilità 10 Km
Il sole sorge alle ore 06:22
Il sole tramonta alle ore 19:41
| Data e Ora | Cielo e Fenomeni | T °C | DP °C | Um. % | Pres. hPa | Vis. km | Vento km/h | |
|---|---|---|---|---|---|---|---|---|
| Ieri h: 23:53 | Sereno | 15 | 8 | 62 | 1008 | 10 | O/SO 9.3 | |
| Ieri h: 22:53 | Sereno | 16 | 7 | 55 | 1008 | 10 | O/SO 14.8 | |
| Ieri h: 21:53 | Sereno | 17 | 7 | 51 | 1008 | 10 | O 11.1 | |
| Ieri h: 20:53 | Sereno | 19 | 9 | 52 | 1008 | 10 | N 0 | |
| Ieri h: 19:53 | Sereno | 22 | 8 | 40 | 1007 | 10 | O/SO 7.4 | |
| Ieri h: 18:53 | Sereno | 27 | 9 | 32 | 1007 | 10 | N 0 | |
| Ieri h: 17:53 | Sereno | 27 | 7 | 28 | 1008 | 10 | N 0 | |
| Ieri h: 16:53 | Sereno | 28 | 6 | 24 | 1009 | 10 | N 5.5 | |
| Ieri h: 15:53 | Sereno | 28 | 6 | 24 | 1010 | 10 | E 7.4 | |
| Ieri h: 14:53 | Sereno | 27 | 7 | 28 | 1010 | 10 | N 7.4 | |
| Ieri h: 13:53 | Sereno | 26 | 7 | 29 | 1011 | 10 | N 7.4 | |
| Ieri h: 12:53 | Sereno | 24 | 6 | 31 | 1012 | 10 | N 0 | |
| Ieri h: 11:53 | Sereno | 23 | 6 | 33 | 1013 | 10 | N 0 | |
| Ieri h: 10:53 | Sereno | 22 | 7 | 37 | 1014 | 10 | N 0 | |
| Ieri h: 09:53 | Sereno | 18 | 9 | 55 | 1015 | 10 | O/NO 11.1 | |
| Ieri h: 08:53 | Sereno | 16 | 8 | 58 | 1015 | 10 | O 13 | |
| Ieri h: 07:53 | Sereno | 13 | 7 | 66 | 1015 | 10 | O/SO 9.3 | |
| Ieri h: 06:53 | Sereno | 8 | 6 | 87 | 1015 | 10 | O 11.1 | |
| Ieri h: 05:53 | Sereno | 8 | 6 | 87 | 1015 | 10 | O 13 | |
| Ieri h: 04:53 | Sereno | 0 | 0 | 100 | 1015 | 0 | N 0 | |
| Ieri h: 03:53 | Sereno | 0 | 0 | 100 | 1015 | 0 | N 0 | |
| Ieri h: 02:53 | Sereno | 0 | 0 | 100 | 1015 | 0 | N 0 | |
| Ieri h: 01:53 | Sereno | 0 | 0 | 93 | 1015 | 0 | N 0 | |
| Ieri h: 00:53 | Sereno | 0 | 0 | 93 | 1015 | 0 | N 0 | |



